Time;durP1;ratioP1;P1;durP2;ratioP2;P2;SDS_P1;SDS_P2;PMS_P1;PMS_P2;Temp;Humidity;BMP_temperature;BMP_pressure;BME280_temperature;BME280_humidity;BME280_pressure;Samples;Min_cycle;Max_cycle;Signal;HPM_P1;HPM_P2
2023/06/03 00:01:15;;;;;;;6.35;4.82;;;15.10;99.90;;;;;;4181491;28;20082;-60
2023/06/03 00:03:17;;;;;;;9.50;4.53;;;15.10;99.90;;;;;;4180850;28;20079;-60
2023/06/03 00:05:20;;;;;;;7.47;4.60;;;15.10;99.90;;;;;;4181484;28;20075;-60
2023/06/03 00:07:21;;;;;;;5.43;3.83;;;15.10;99.90;;;;;;4180387;28;20029;-60
2023/06/03 00:09:23;;;;;;;5.85;4.35;;;15.10;99.90;;;;;;4181422;28;20029;-61
2023/06/03 00:11:24;;;;;;;8.50;4.50;;;15.10;99.90;;;;;;4180351;28;20151;-61
2023/06/03 00:13:26;;;;;;;5.28;4.15;;;15.10;99.90;;;;;;4181448;28;20082;-61
2023/06/03 00:15:27;;;;;;;15.70;5.28;;;15.10;99.90;;;;;;4179704;28;20037;-61
2023/06/03 00:17:28;;;;;;;6.72;4.30;;;15.10;99.90;;;;;;4180583;28;20075;-60
2023/06/03 00:19:29;;;;;;;6.68;4.03;;;15.10;99.90;;;;;;4172805;28;20150;-60
2023/06/03 00:21:30;;;;;;;6.05;4.43;;;15.10;99.90;;;;;;4162990;28;20474;-61
2023/06/03 00:23:31;;;;;;;7.53;4.80;;;15.00;99.90;;;;;;4164238;28;20025;-62
2023/06/03 00:25:34;;;;;;;7.40;4.80;;;15.00;99.90;;;;;;4163632;28;20041;-60
2023/06/03 00:27:36;;;;;;;8.07;5.13;;;14.90;99.90;;;;;;4164423;28;20026;-61
2023/06/03 00:29:37;;;;;;;12.98;4.78;;;14.90;99.90;;;;;;4163272;28;20107;-60
2023/06/03 00:31:38;;;;;;;7.65;4.72;;;14.80;99.90;;;;;;4164488;28;20076;-61
2023/06/03 00:33:39;;;;;;;6.90;4.60;;;14.80;99.90;;;;;;4163807;28;20112;-60
2023/06/03 00:35:40;;;;;;;8.13;4.75;;;14.80;99.90;;;;;;4171951;28;20472;-61
2023/06/03 00:37:41;;;;;;;6.55;4.40;;;14.80;99.90;;;;;;4179415;28;20111;-61
2023/06/03 00:39:42;;;;;;;7.22;4.70;;;14.80;99.90;;;;;;4180854;28;20033;-61
2023/06/03 00:41:44;;;;;;;6.15;4.20;;;14.80;99.90;;;;;;4179873;28;20029;-61
2023/06/03 00:43:45;;;;;;;7.95;4.35;;;14.80;99.90;;;;;;4180739;28;20024;-62
2023/06/03 00:45:46;;;;;;;5.80;4.63;;;14.80;99.90;;;;;;4179811;28;20686;-62
2023/06/03 00:47:48;;;;;;;5.93;4.07;;;14.80;99.90;;;;;;4180703;28;20033;-62
2023/06/03 00:49:49;;;;;;;8.88;4.82;;;14.70;99.90;;;;;;4179880;28;20029;-61
2023/06/03 00:51:50;;;;;;;7.78;4.45;;;14.80;99.90;;;;;;4180333;28;20098;-62
2023/06/03 00:53:52;;;;;;;6.90;4.50;;;14.80;99.90;;;;;;4180178;28;20025;-62
2023/06/03 00:55:53;;;;;;;5.55;3.92;;;14.70;99.90;;;;;;4178382;28;20037;-63
2023/06/03 00:57:55;;;;;;;8.07;5.03;;;14.70;99.90;;;;;;4180291;28;20041;-67
2023/06/03 00:59:57;;;;;;;7.43;4.25;;;14.70;99.90;;;;;;4179529;28;20642;-64
2023/06/03 01:01:58;;;;;;;10.50;4.65;;;14.80;99.90;;;;;;4180701;28;20094;-61
2023/06/03 01:03:59;;;;;;;7.07;3.92;;;14.70;99.90;;;;;;4179845;28;20424;-62
2023/06/03 01:06:14;;;;;;;5.65;3.90;;;14.80;99.90;;;;;;4180595;28;20025;-67
2023/06/03 01:08:31;;;;;;;6.75;4.05;;;14.80;99.90;;;;;;4178170;28;20025;-62
2023/06/03 01:11:16;;;;;;;8.55;3.85;;;14.80;99.90;;;;;;4180507;28;20025;-68
2023/06/03 01:13:36;;;;;;;10.63;4.23;;;14.80;99.90;;;;;;4179351;28;20044;-61
2023/06/03 01:15:42;;;;;;;5.60;4.03;;;14.80;99.90;;;;;;4179551;28;20075;-64
2023/06/03 01:17:47;;;;;;;5.65;3.90;;;14.80;99.90;;;;;;4180044;28;20419;-66
2023/06/03 01:19:52;;;;;;;6.18;3.95;;;14.80;99.90;;;;;;4179794;28;20017;-65
2023/06/03 01:22:00;;;;;;;5.45;4.22;;;14.80;99.90;;;;;;4179810;28;20033;-62
2023/06/03 01:24:02;;;;;;;5.00;4.22;;;14.70;99.90;;;;;;4179374;28;20543;-62
2023/06/03 01:26:04;;;;;;;8.98;3.80;;;14.70;99.90;;;;;;4179606;28;20025;-63
2023/06/03 01:28:05;;;;;;;5.13;3.78;;;14.70;99.90;;;;;;4179910;28;20087;-61
2023/06/03 01:30:09;;;;;;;5.50;4.17;;;14.60;99.90;;;;;;4178897;28;20095;-64
2023/06/03 01:32:14;;;;;;;6.25;4.45;;;14.50;99.90;;;;;;4179626;28;20159;-61
2023/06/03 01:34:16;;;;;;;4.78;3.90;;;14.60;99.90;;;;;;4179017;28;20041;-60
2023/06/03 01:36:17;;;;;;;5.10;3.90;;;14.50;99.90;;;;;;4179834;28;20041;-60
2023/06/03 01:38:18;;;;;;;7.27;4.57;;;14.50;99.90;;;;;;4178897;28;20033;-60
2023/06/03 01:40:20;;;;;;;6.75;4.18;;;14.50;99.90;;;;;;4179763;28;20094;-61
2023/06/03 01:42:21;;;;;;;7.75;4.57;;;14.40;99.90;;;;;;4178910;28;20508;-62
2023/06/03 01:44:22;;;;;;;7.28;4.13;;;14.40;99.90;;;;;;4179453;28;20025;-62
2023/06/03 01:46:24;;;;;;;6.78;4.20;;;14.40;99.90;;;;;;4178864;28;20083;-61
2023/06/03 01:48:25;;;;;;;4.95;3.80;;;14.30;99.90;;;;;;4180012;28;20029;-61
2023/06/03 01:50:26;;;;;;;6.63;3.90;;;14.30;99.90;;;;;;4178724;28;20036;-63
2023/06/03 01:52:27;;;;;;;6.82;3.75;;;14.30;99.90;;;;;;4179823;28;20033;-65
2023/06/03 01:54:29;;;;;;;6.15;4.13;;;14.30;99.90;;;;;;4178387;28;20037;-62
2023/06/03 01:56:31;;;;;;;4.82;4.25;;;14.30;99.90;;;;;;4177658;28;20111;-61
2023/06/03 01:58:32;;;;;;;9.65;4.20;;;14.30;99.90;;;;;;4179077;28;20029;-65
2023/06/03 02:00:33;;;;;;;6.07;4.60;;;14.30;99.90;;;;;;4179019;28;20079;-62
2023/06/03 02:02:34;;;;;;;5.30;4.15;;;14.30;99.90;;;;;;4179452;28;20082;-60
2023/06/03 02:04:35;;;;;;;6.28;3.60;;;14.20;99.90;;;;;;4179004;28;20512;-60
2023/06/03 02:06:36;;;;;;;6.32;4.10;;;14.20;99.90;;;;;;4179490;28;20037;-61
2023/06/03 02:08:37;;;;;;;5.43;3.95;;;14.20;99.90;;;;;;4178608;28;20033;-60
2023/06/03 02:10:39;;;;;;;8.27;4.10;;;14.20;99.90;;;;;;4179482;28;20082;-61
2023/06/03 02:12:40;;;;;;;6.13;4.53;;;14.20;99.90;;;;;;4178431;28;20037;-61
2023/06/03 02:14:41;;;;;;;5.80;4.00;;;14.20;99.90;;;;;;4179355;28;20150;-60
2023/06/03 02:16:43;;;;;;;8.20;4.72;;;14.30;99.90;;;;;;4177902;28;20087;-61
2023/06/03 02:18:45;;;;;;;6.63;4.23;;;14.20;99.90;;;;;;4179244;28;20086;-60
2023/06/03 02:20:46;;;;;;;5.70;3.87;;;14.20;99.90;;;;;;4178394;28;20025;-60
2023/06/03 02:22:47;;;;;;;7.63;4.72;;;14.20;99.90;;;;;;4179507;28;20037;-60
2023/06/03 02:24:49;;;;;;;7.47;4.50;;;14.20;99.90;;;;;;4178112;28;20029;-61
2023/06/03 02:26:52;;;;;;;5.87;4.40;;;14.20;99.90;;;;;;4178929;28;20098;-60
2023/06/03 02:28:53;;;;;;;7.07;4.57;;;14.20;99.90;;;;;;4178032;28;20017;-61
2023/06/03 02:30:54;;;;;;;7.20;4.33;;;14.20;99.90;;;;;;4178751;28;20059;-61
2023/06/03 02:32:55;;;;;;;6.03;4.35;;;14.20;99.90;;;;;;4178295;28;20024;-63
2023/06/03 02:34:57;;;;;;;10.98;4.57;;;14.10;99.90;;;;;;4178224;28;20431;-61
2023/06/03 02:36:58;;;;;;;7.50;4.00;;;14.20;99.90;;;;;;4178400;28;20082;-60
2023/06/03 02:38:59;;;;;;;7.57;4.50;;;14.20;99.90;;;;;;4176210;28;20041;-61
2023/06/03 02:41:00;;;;;;;6.13;4.23;;;14.20;99.90;;;;;;4178871;28;20059;-61
2023/06/03 02:43:01;;;;;;;5.47;4.03;;;14.20;99.90;;;;;;4177450;28;20037;-60
2023/06/03 02:45:02;;;;;;;8.20;4.28;;;14.20;99.90;;;;;;4178543;28;20037;-61
2023/06/03 02:47:04;;;;;;;8.02;4.82;;;14.20;99.90;;;;;;4177954;28;20021;-60
2023/06/03 02:49:07;;;;;;;8.45;4.57;;;14.20;99.90;;;;;;4178812;28;20029;-61
2023/06/03 02:51:08;;;;;;;10.73;4.80;;;14.20;99.90;;;;;;4177430;28;20036;-61
2023/06/03 02:53:11;;;;;;;6.03;4.30;;;14.30;99.90;;;;;;4178935;28;20033;-61
2023/06/03 02:55:13;;;;;;;7.37;4.70;;;14.40;99.90;;;;;;4176263;28;20064;-61
2023/06/03 02:57:15;;;;;;;6.28;4.30;;;14.50;99.90;;;;;;4178894;28;20098;-62
2023/06/03 02:59:16;;;;;;;6.68;3.65;;;14.60;99.90;;;;;;4177139;28;20029;-61
2023/06/03 03:01:18;;;;;;;9.35;4.38;;;14.80;99.90;;;;;;4177987;28;20045;-61
2023/06/03 03:03:20;;;;;;;7.10;4.43;;;15.00;99.90;;;;;;4177943;28;20021;-61
2023/06/03 03:05:23;;;;;;;6.07;4.18;;;15.10;99.90;;;;;;4178220;28;20041;-61
2023/06/03 03:07:26;;;;;;;7.75;4.47;;;15.20;99.90;;;;;;4178271;28;20029;-60
2023/06/03 03:09:28;;;;;;;4.80;4.30;;;15.30;99.90;;;;;;4177649;28;20033;-61
2023/06/03 03:11:29;;;;;;;6.40;4.13;;;15.50;99.90;;;;;;4176596;28;20045;-63
2023/06/03 03:13:30;;;;;;;6.03;4.20;;;15.50;99.90;;;;;;4177233;28;20471;-62
2023/06/03 03:15:31;;;;;;;8.57;4.75;;;15.40;99.90;;;;;;4178004;28;20029;-60
2023/06/03 03:17:32;;;;;;;6.85;4.32;;;15.40;99.90;;;;;;4176893;28;20033;-62
2023/06/03 03:19:34;;;;;;;5.88;4.63;;;15.30;99.90;;;;;;4178537;28;20479;-61
2023/06/03 03:21:35;;;;;;;5.75;3.97;;;15.20;99.90;;;;;;4175406;28;20483;-61
2023/06/03 03:23:36;;;;;;;5.25;4.10;;;15.30;99.90;;;;;;4178404;28;20451;-60
2023/06/03 03:25:38;;;;;;;6.18;3.85;;;15.50;99.90;;;;;;4177351;28;20484;-62
2023/06/03 03:27:39;;;;;;;7.68;4.20;;;15.70;99.90;;;;;;4168462;28;20091;-61
2023/06/03 03:29:44;;;;;;;7.45;4.75;;;16.00;99.90;;;;;;4160641;28;20088;-61
2023/06/03 03:31:45;;;;;;;5.80;4.32;;;16.30;99.90;;;;;;4161448;28;20041;-61
2023/06/03 03:33:50;;;;;;;7.70;4.60;;;16.70;99.90;;;;;;4160874;28;20037;-71
2023/06/03 03:35:51;;;;;;;5.93;4.13;;;17.10;99.90;;;;;;4170982;28;20029;-60
2023/06/03 03:38:03;;;;;;;6.30;4.03;;;17.50;99.90;;;;;;4177277;28;20053;-62
2023/06/03 03:40:13;;;;;;;6.40;4.20;;;17.80;99.90;;;;;;4178055;28;20029;-62
2023/06/03 03:42:14;;;;;;;5.03;3.83;;;18.10;99.90;;;;;;4177385;28;20428;-64
2023/06/03 03:44:16;;;;;;;6.82;4.45;;;18.20;99.90;;;;;;4177738;28;20469;-62
2023/06/03 03:46:18;;;;;;;6.47;4.43;;;18.50;99.90;;;;;;4177266;28;21184;-61
2023/06/03 03:48:20;;;;;;;6.63;4.28;;;18.80;99.90;;;;;;4177391;28;20665;-62
2023/06/03 03:50:40;;;;;;;5.07;3.83;;;18.90;99.90;;;;;;4177436;28;20102;-65
2023/06/03 03:52:41;;;;;;;8.27;4.80;;;19.10;99.90;;;;;;4177537;28;20091;-60
2023/06/03 03:54:42;;;;;;;8.57;3.90;;;19.10;99.90;;;;;;4177856;28;20162;-62
2023/06/03 03:56:43;;;;;;;7.65;5.30;;;19.30;99.90;;;;;;4177215;28;20029;-62
2023/06/03 03:58:46;;;;;;;18.65;7.30;;;19.60;99.90;;;;;;4177418;28;20045;-60
2023/06/03 04:00:47;;;;;;;6.07;4.20;;;19.90;99.90;;;;;;4176737;28;20102;-61
2023/06/03 04:02:53;;;;;;;5.35;3.75;;;20.30;99.90;;;;;;4177996;28;20033;-62
2023/06/03 04:04:55;;;;;;;7.18;4.00;;;20.80;99.90;;;;;;4177099;28;20469;-61
2023/06/03 04:06:56;;;;;;;6.75;3.53;;;21.20;99.90;;;;;;4178339;28;20037;-63
2023/06/03 04:08:58;;;;;;;6.38;3.78;;;21.50;99.90;;;;;;4176961;28;20028;-61
2023/06/03 04:10:59;;;;;;;8.65;4.00;;;21.70;99.90;;;;;;4177536;28;20045;-62
2023/06/03 04:13:03;;;;;;;4.72;3.72;;;21.90;99.90;;;;;;4176762;28;20033;-60
2023/06/03 04:15:05;;;;;;;4.88;4.07;;;22.10;99.90;;;;;;4177562;28;20099;-61
2023/06/03 04:17:08;;;;;;;5.60;3.88;;;22.40;99.90;;;;;;4176847;28;20075;-62
2023/06/03 04:19:19;;;;;;;6.32;3.80;;;22.80;99.90;;;;;;4177963;28;20354;-61
2023/06/03 04:21:20;;;;;;;5.80;4.43;;;23.20;99.90;;;;;;4176714;28;20138;-66
2023/06/03 04:23:22;;;;;;;7.03;4.72;;;23.20;99.90;;;;;;4177666;28;20370;-61
2023/06/03 04:25:24;;;;;;;6.45;3.70;;;23.30;99.90;;;;;;4176880;28;20070;-65
2023/06/03 04:27:25;;;;;;;5.45;4.43;;;23.30;99.90;;;;;;4175587;28;20087;-64
2023/06/03 04:29:26;;;;;;;9.65;4.40;;;23.60;99.90;;;;;;4177117;28;20051;-60
2023/06/03 04:31:27;;;;;;;6.57;3.80;;;23.60;99.90;;;;;;4177082;28;20530;-67
2023/06/03 04:33:28;;;;;;;5.55;3.78;;;23.60;99.90;;;;;;4177052;28;20040;-60
2023/06/03 04:35:29;;;;;;;4.75;3.13;;;23.50;99.90;;;;;;4176828;28;20025;-61
2023/06/03 04:37:31;;;;;;;5.05;3.40;;;23.50;99.90;;;;;;4177171;28;20049;-62
2023/06/03 04:39:32;;;;;;;6.75;3.22;;;23.40;99.90;;;;;;4176146;28;20094;-64
2023/06/03 04:41:33;;;;;;;11.05;3.45;;;23.60;99.90;;;;;;4177346;28;20539;-62
2023/06/03 04:43:36;;;;;;;3.90;3.28;;;23.70;99.90;;;;;;4163059;28;20138;-62
2023/06/03 04:45:37;;;;;;;5.75;3.13;;;24.00;99.90;;;;;;4172862;28;20087;-63
2023/06/03 04:47:41;;;;;;;5.30;3.47;;;23.90;99.90;;;;;;4179261;28;20535;-60
2023/06/03 04:49:42;;;;;;;8.07;3.53;;;23.80;99.90;;;;;;4180331;28;20154;-60
2023/06/03 04:51:44;;;;;;;7.25;3.50;;;24.00;99.90;;;;;;4179195;28;20029;-60
2023/06/03 04:53:45;;;;;;;6.70;3.50;;;24.20;99.90;;;;;;4180210;28;20107;-60
2023/06/03 04:55:46;;;;;;;5.00;3.38;;;24.50;99.90;;;;;;4179379;28;20041;-62
2023/06/03 04:57:50;;;;;;;5.80;3.17;;;24.80;99.90;;;;;;4179870;28;20033;-60
2023/06/03 04:59:52;;;;;;;3.28;2.97;;;25.40;99.90;;;;;;4179275;28;20033;-61
2023/06/03 05:01:53;;;;;;;7.80;3.15;;;25.50;99.90;;;;;;4178646;28;20086;-60
2023/06/03 05:03:55;;;;;;;5.82;3.80;;;25.80;99.90;;;;;;4179622;28;20045;-62
2023/06/03 05:06:01;;;;;;;6.45;3.47;;;26.30;99.90;;;;;;4180000;28;20087;-66
2023/06/03 05:08:02;;;;;;;8.65;3.63;;;26.60;99.40;;;;;;4180018;28;20071;-63
2023/06/03 05:10:03;;;;;;;3.92;2.72;;;26.90;98.90;;;;;;4179236;28;20185;-61
2023/06/03 05:12:06;;;;;;;4.50;2.92;;;27.00;98.40;;;;;;4179991;28;20106;-61
2023/06/03 05:14:08;;;;;;;4.05;3.03;;;27.00;98.00;;;;;;4178874;28;20083;-62
2023/06/03 05:16:10;;;;;;;5.15;3.20;;;27.00;97.70;;;;;;4180287;28;20106;-61
2023/06/03 05:18:11;;;;;;;4.43;3.22;;;27.10;97.60;;;;;;4179069;28;20021;-62
2023/06/03 05:20:12;;;;;;;4.60;3.22;;;27.20;97.30;;;;;;4180209;28;20029;-62
2023/06/03 05:22:14;;;;;;;6.10;3.13;;;27.30;97.00;;;;;;4179221;28;20024;-61
2023/06/03 05:24:15;;;;;;;6.00;3.28;;;27.40;96.70;;;;;;4180208;28;20033;-68
2023/06/03 05:26:16;;;;;;;6.80;3.80;;;27.50;96.30;;;;;;4179085;28;20075;-61
2023/06/03 05:28:17;;;;;;;6.13;3.75;;;27.40;96.10;;;;;;4178726;28;20041;-61
2023/06/03 05:30:18;;;;;;;5.03;3.05;;;27.00;96.10;;;;;;4178506;28;20041;-64
2023/06/03 05:32:19;;;;;;;9.10;3.40;;;27.10;96.10;;;;;;4178653;28;20871;-61
2023/06/03 05:34:20;;;;;;;7.65;3.10;;;27.50;95.80;;;;;;4178554;28;20029;-59
2023/06/03 05:36:22;;;;;;;6.10;3.75;;;27.30;95.40;;;;;;4179502;28;20099;-60
2023/06/03 05:38:24;;;;;;;5.20;3.50;;;27.30;95.60;;;;;;4178554;28;20052;-61
2023/06/03 05:40:25;;;;;;;4.65;2.90;;;27.30;95.40;;;;;;4178053;28;20021;-64
2023/06/03 05:42:26;;;;;;;6.97;3.58;;;27.40;95.50;;;;;;4178444;28;20040;-60
2023/06/03 05:44:27;;;;;;;10.73;3.42;;;27.70;95.30;;;;;;4178558;28;20028;-60
2023/06/03 05:46:28;;;;;;;6.82;3.35;;;27.90;95.00;;;;;;4179261;28;20040;-61
2023/06/03 05:48:29;;;;;;;4.45;3.63;;;27.90;94.80;;;;;;4177945;28;20037;-60
2023/06/03 05:50:31;;;;;;;6.95;2.83;;;27.00;94.80;;;;;;4178468;28;20115;-66
2023/06/03 05:52:32;;;;;;;4.60;4.03;;;26.90;95.50;;;;;;4177134;28;20842;-60
2023/06/03 05:54:33;;;;;;;10.10;3.75;;;27.00;95.50;;;;;;4178811;28;20087;-59
2023/06/03 05:56:34;;;;;;;4.78;3.20;;;26.40;95.50;;;;;;4178349;28;20025;-61
2023/06/03 05:58:35;;;;;;;3.90;2.88;;;26.20;96.00;;;;;;4179548;28;20029;-64
2023/06/03 06:00:36;;;;;;;3.92;3.22;;;26.70;95.90;;;;;;4178066;28;20485;-60
2023/06/03 06:02:39;;;;;;;3.75;2.80;;;27.20;95.30;;;;;;4179025;28;20087;-61
2023/06/03 06:04:40;;;;;;;5.60;3.60;;;27.00;94.90;;;;;;4177884;28;20082;-61
2023/06/03 06:06:42;;;;;;;7.97;3.45;;;26.90;95.30;;;;;;4178883;28;20094;-61
2023/06/03 06:08:43;;;;;;;7.45;3.20;;;27.10;95.10;;;;;;4176243;28;20029;-61
2023/06/03 06:10:44;;;;;;;11.57;3.00;;;27.10;95.00;;;;;;4176637;28;20053;-61
2023/06/03 06:12:45;;;;;;;8.07;3.97;;;26.80;95.20;;;;;;4178395;28;20033;-60
2023/06/03 06:14:46;;;;;;;6.47;3.03;;;26.70;95.20;;;;;;4177496;28;20041;-61
2023/06/03 06:16:47;;;;;;;10.00;4.20;;;26.70;95.50;;;;;;4178736;28;20029;-61
2023/06/03 06:18:49;;;;;;;5.85;3.75;;;27.00;95.20;;;;;;4177558;28;20070;-61
2023/06/03 06:20:50;;;;;;;9.60;4.32;;;27.30;94.90;;;;;;4178681;28;20087;-61
2023/06/03 06:22:52;;;;;;;5.38;2.50;;;27.60;94.70;;;;;;4177423;28;20574;-60
2023/06/03 06:24:53;;;;;;;2.88;2.53;;;27.50;94.60;;;;;;4178542;28;20049;-61
2023/06/03 06:26:54;;;;;;;7.07;3.42;;;27.50;94.50;;;;;;4177297;28;20110;-61
2023/06/03 06:28:55;;;;;;;8.57;3.10;;;27.40;94.30;;;;;;4178863;28;20033;-60
2023/06/03 06:31:02;;;;;;;9.63;3.17;;;27.50;94.20;;;;;;4177583;28;20554;-59
2023/06/03 06:33:03;;;;;;;8.40;3.00;;;27.20;94.10;;;;;;4178802;28;20037;-60
2023/06/03 06:35:05;;;;;;;6.85;3.35;;;27.20;94.50;;;;;;4177720;28;20429;-60
2023/06/03 06:37:09;;;;;;;5.25;3.20;;;27.30;94.50;;;;;;4177186;28;20102;-61
2023/06/03 06:39:42;;;;;;;4.18;3.15;;;27.40;94.30;;;;;;4177491;28;20021;-61
2023/06/03 06:41:43;;;;;;;5.15;3.55;;;27.40;94.30;;;;;;4178325;28;20118;-61
2023/06/03 06:43:44;;;;;;;8.13;3.67;;;27.20;94.50;;;;;;4177440;28;20033;-62
2023/06/03 06:45:45;;;;;;;4.80;3.53;;;27.20;94.50;;;;;;4178321;28;20071;-62
2023/06/03 06:47:46;;;;;;;6.57;3.05;;;27.50;94.20;;;;;;4177423;28;20075;-61
2023/06/03 06:49:48;;;;;;;13.18;3.95;;;27.50;94.00;;;;;;4178173;28;20107;-61
2023/06/03 06:51:53;;;;;;;9.65;4.25;;;26.50;94.10;;;;;;4177770;28;20045;-61
2023/06/03 06:53:54;;;;;;;12.13;3.97;;;25.70;95.00;;;;;;4176992;28;20037;-62
2023/06/03 06:55:56;;;;;;;27.80;6.97;;;26.20;95.00;;;;;;4177610;28;20041;-62
2023/06/03 06:57:57;;;;;;;67.35;8.95;;;26.30;94.80;;;;;;4177744;28;20021;-60
2023/06/03 06:59:58;;;;;;;21.55;6.10;;;26.10;94.60;;;;;;4177718;28;20071;-58
2023/06/03 07:01:59;;;;;;;15.07;4.85;;;25.50;95.10;;;;;;4177084;28;20037;-64
2023/06/03 07:04:00;;;;;;;11.65;3.70;;;24.90;95.40;;;;;;4178603;28;20033;-61
2023/06/03 07:06:01;;;;;;;12.20;3.17;;;24.80;95.60;;;;;;4176890;28;20029;-62
2023/06/03 07:08:03;;;;;;;23.35;6.10;;;25.40;95.50;;;;;;4178706;28;20098;-62
2023/06/03 07:10:04;;;;;;;11.88;4.03;;;26.20;95.00;;;;;;4176534;28;20033;-63
2023/06/03 07:12:06;;;;;;;5.10;3.35;;;25.70;94.70;;;;;;4177804;28;20477;-62
2023/06/03 07:14:07;;;;;;;4.90;3.38;;;25.10;95.00;;;;;;4177116;28;20370;-61
2023/06/03 07:16:08;;;;;;;6.93;3.50;;;24.30;95.50;;;;;;4177565;28;20041;-63
2023/06/03 07:18:10;;;;;;;4.90;2.97;;;23.80;96.30;;;;;;4176571;28;20036;-62
2023/06/03 07:20:19;;;;;;;3.75;3.00;;;24.00;96.30;;;;;;4178332;28;20492;-62
2023/06/03 07:22:20;;;;;;;6.90;3.63;;;24.30;96.00;;;;;;4174558;28;20113;-63
2023/06/03 07:24:22;;;;;;;8.02;4.07;;;23.90;96.30;;;;;;4177010;28;20033;-61
2023/06/03 07:26:27;;;;;;;4.25;3.13;;;23.60;96.40;;;;;;4176855;28;20029;-60
2023/06/03 07:28:29;;;;;;;3.70;2.95;;;23.30;96.80;;;;;;4177914;28;20070;-63
2023/06/03 07:30:37;;;;;;;3.60;3.15;;;23.20;97.20;;;;;;4177261;28;20111;-62
2023/06/03 07:32:38;;;;;;;5.20;3.13;;;23.10;97.20;;;;;;4176712;28;20041;-61
2023/06/03 07:34:40;;;;;;;7.55;3.42;;;23.00;97.50;;;;;;4177297;28;20427;-63
2023/06/03 07:36:41;;;;;;;5.60;3.35;;;22.70;97.90;;;;;;4177118;28;20440;-62
2023/06/03 07:39:07;;;;;;;9.02;4.03;;;22.50;98.20;;;;;;4177490;28;20033;-64
2023/06/03 07:41:09;;;;;;;6.28;3.08;;;22.60;98.20;;;;;;4177111;28;20086;-62
2023/06/03 07:43:11;;;;;;;5.78;3.17;;;22.50;98.10;;;;;;4177454;28;20087;-63
2023/06/03 07:45:15;;;;;;;4.05;2.80;;;22.50;98.40;;;;;;4176034;28;20552;-62
2023/06/03 07:47:17;;;;;;;6.45;3.30;;;22.30;99.00;;;;;;4177819;28;20460;-65
2023/06/03 07:49:19;;;;;;;4.60;3.03;;;22.20;99.50;;;;;;4176847;28;20033;-65
2023/06/03 07:51:20;;;;;;;6.45;3.10;;;22.00;99.50;;;;;;4177051;28;20386;-64
2023/06/03 07:53:25;;;;;;;4.78;3.33;;;21.90;99.90;;;;;;4176671;28;20075;-63
2023/06/03 07:55:44;;;;;;;4.82;3.53;;;21.90;99.90;;;;;;4177972;28;20051;-62
2023/06/03 07:57:48;;;;;;;4.25;3.30;;;22.10;99.90;;;;;;4176471;28;20110;-61
2023/06/03 07:59:52;;;;;;;6.13;3.30;;;22.20;99.90;;;;;;4177157;28;20037;-65
2023/06/03 08:02:00;;;;;;;3.13;2.85;;;22.30;99.90;;;;;;4176788;28;20469;-61
2023/06/03 08:04:13;;;;;;;5.82;3.55;;;22.30;99.90;;;;;;4177536;28;20444;-62
2023/06/03 08:06:49;;;;;;;4.20;3.13;;;22.00;99.90;;;;;;4645859;23;20018;-61
2023/06/03 08:08:51;;;;;;;5.20;3.58;;;22.10;99.90;;;;;;4108134;28;20183;-62
2023/06/03 08:10:52;;;;;;;4.05;3.65;;;22.30;99.90;;;;;;4118488;28;20042;-60
2023/06/03 08:12:53;;;;;;;4.32;3.60;;;22.40;99.90;;;;;;4110090;28;20094;-64
2023/06/03 08:14:54;;;;;;;7.07;3.08;;;22.10;99.90;;;;;;4108796;28;20097;-61
2023/06/03 08:17:01;;;;;;;5.40;3.20;;;21.90;99.90;;;;;;4111566;28;20407;-61
2023/06/03 08:19:03;;;;;;;4.03;3.00;;;21.70;99.90;;;;;;4111637;28;20031;-61
2023/06/03 08:21:05;;;;;;;5.95;3.85;;;21.70;99.90;;;;;;4114084;28;20035;-64
2023/06/03 08:23:06;;;;;;;5.47;4.03;;;21.70;99.90;;;;;;4111468;28;20034;-60
2023/06/03 08:25:07;;;;;;;7.40;3.92;;;21.90;99.90;;;;;;4113374;28;20043;-61
2023/06/03 08:27:08;;;;;;;6.70;3.80;;;21.90;99.90;;;;;;4112465;28;20085;-60
2023/06/03 08:29:10;;;;;;;6.63;3.60;;;21.60;99.90;;;;;;4113510;28;20462;-61
2023/06/03 08:31:12;;;;;;;3.72;2.65;;;21.60;99.90;;;;;;4112029;28;20462;-60
2023/06/03 08:33:13;;;;;;;4.72;3.45;;;21.70;99.90;;;;;;4113171;28;20093;-60
2023/06/03 08:35:19;;;;;;;5.15;3.70;;;21.70;99.90;;;;;;4112466;28;20085;-59
2023/06/03 08:37:20;;;;;;;7.22;3.50;;;21.90;99.90;;;;;;4097441;28;20075;-59
2023/06/03 08:39:22;;;;;;;5.55;3.55;;;22.10;99.90;;;;;;4114969;28;20027;-60
2023/06/03 08:41:29;;;;;;;9.23;3.65;;;22.40;99.90;;;;;;4130165;28;20505;-60
2023/06/03 08:43:38;;;;;;;4.80;3.78;;;22.30;99.90;;;;;;4129904;28;20061;-61
2023/06/03 08:46:05;;;;;;;5.25;4.05;;;22.00;99.90;;;;;;4130867;28;20031;-59
2023/06/03 08:48:24;;;;;;;6.35;4.03;;;21.90;99.90;;;;;;4129583;28;20077;-60
2023/06/03 08:50:27;;;;;;;7.07;3.97;;;21.90;99.90;;;;;;4130187;28;20422;-60
2023/06/03 08:52:33;;;;;;;3.50;3.20;;;21.60;99.90;;;;;;4130159;28;20026;-58
2023/06/03 08:54:37;;;;;;;6.15;4.10;;;21.50;99.90;;;;;;4130943;28;20046;-59
2023/06/03 08:56:45;;;;;;;4.00;3.13;;;21.40;99.90;;;;;;4130416;28;20042;-59
2023/06/03 08:59:00;;;;;;;5.60;3.55;;;21.40;99.90;;;;;;4131214;28;20093;-59
2023/06/03 09:01:03;;;;;;;9.13;3.75;;;21.60;99.90;;;;;;4119455;28;20093;-61
2023/06/03 09:03:05;;;;;;;5.10;3.25;;;21.70;99.90;;;;;;4114363;28;20034;-62
2023/06/03 09:05:08;;;;;;;4.75;3.33;;;21.70;99.90;;;;;;4114082;28;20043;-60
2023/06/03 09:07:11;;;;;;;7.10;3.60;;;21.40;99.90;;;;;;4114185;28;20046;-65
2023/06/03 09:09:12;;;;;;;6.30;3.80;;;21.40;99.90;;;;;;4121122;28;20390;-61
2023/06/03 09:11:14;;;;;;;6.30;3.58;;;21.20;99.90;;;;;;4129768;28;20494;-61
2023/06/03 09:13:16;;;;;;;5.13;3.47;;;21.20;99.90;;;;;;4130392;28;20561;-59
2023/06/03 09:15:18;;;;;;;4.40;3.50;;;21.20;99.90;;;;;;4130058;28;20034;-60
2023/06/03 09:17:19;;;;;;;6.72;3.28;;;21.20;99.90;;;;;;4131271;28;20504;-60
2023/06/03 09:19:21;;;;;;;5.75;3.17;;;21.30;99.90;;;;;;4129805;28;20457;-60
2023/06/03 09:21:23;;;;;;;5.72;2.90;;;21.40;99.90;;;;;;4131171;28;20472;-60
2023/06/03 09:23:26;;;;;;;6.22;3.53;;;21.60;99.90;;;;;;4129956;28;20038;-63
2023/06/03 09:25:28;;;;;;;9.18;3.80;;;21.70;99.90;;;;;;4130986;28;20018;-60
2023/06/03 09:27:29;;;;;;;30.17;6.57;;;21.60;99.90;;;;;;4128602;28;20046;-60
2023/06/03 09:29:30;;;;;;;15.68;5.97;;;21.50;99.90;;;;;;4122990;28;20046;-61
2023/06/03 09:31:31;;;;;;;15.85;5.47;;;21.40;99.90;;;;;;4113594;28;20050;-61
2023/06/03 09:33:33;;;;;;;15.57;5.10;;;21.50;99.90;;;;;;4114317;28;20483;-59
2023/06/03 09:35:34;;;;;;;13.23;4.60;;;21.70;99.90;;;;;;4115822;28;20439;-59
2023/06/03 09:37:35;;;;;;;8.88;3.80;;;21.90;99.90;;;;;;4127761;28;20035;-57
2023/06/03 09:39:37;;;;;;;5.95;3.90;;;21.90;99.90;;;;;;4130302;28;20477;-60
2023/06/03 09:41:41;;;;;;;31.00;8.07;;;21.90;99.90;;;;;;4129696;28;20046;-60
2023/06/03 09:43:55;;;;;;;27.77;7.25;;;22.20;99.90;;;;;;4128948;28;20042;-60
2023/06/03 09:46:09;;;;;;;15.27;4.30;;;22.40;99.90;;;;;;4129842;28;20572;-59
2023/06/03 09:48:10;;;;;;;4.78;4.03;;;22.40;99.90;;;;;;4129876;28;20450;-61
2023/06/03 09:50:11;;;;;;;4.85;3.45;;;22.60;99.90;;;;;;4129382;28;20030;-61
2023/06/03 09:52:31;;;;;;;6.75;3.67;;;22.80;99.90;;;;;;4129570;28;20085;-62
2023/06/03 09:54:32;;;;;;;12.32;4.88;;;22.90;99.90;;;;;;4128987;28;20088;-62
2023/06/03 09:56:33;;;;;;;18.38;5.63;;;22.60;99.90;;;;;;4130083;28;20441;-61
2023/06/03 09:58:34;;;;;;;35.63;8.70;;;22.50;99.90;;;;;;4127790;28;20054;-61
2023/06/03 10:00:49;;;;;;;14.02;4.93;;;22.40;99.90;;;;;;4129994;28;20042;-60
2023/06/03 10:02:50;;;;;;;26.17;5.95;;;22.30;99.90;;;;;;4128092;28;20489;-62
2023/06/03 10:04:52;;;;;;;7.75;3.83;;;22.20;99.90;;;;;;4129592;28;20038;-61
2023/06/03 10:07:06;;;;;;;7.70;4.18;;;22.40;99.90;;;;;;4128604;28;20035;-60
2023/06/03 10:09:19;;;;;;;17.35;5.63;;;22.70;99.90;;;;;;4130296;28;20081;-62
2023/06/03 10:11:22;;;;;;;9.93;4.50;;;23.00;99.90;;;;;;4128425;28;20050;-62
2023/06/03 10:13:23;;;;;;;11.10;4.68;;;23.10;99.90;;;;;;4126662;28;20089;-65
2023/06/03 10:15:52;;;;;;;5.85;3.72;;;23.40;99.90;;;;;;4112914;28;20035;-60
2023/06/03 10:17:53;;;;;;;7.70;4.30;;;23.80;99.90;;;;;;4112480;28;20118;-61
2023/06/03 10:19:55;;;;;;;3.58;3.22;;;24.00;99.90;;;;;;4112772;28;20086;-62
2023/06/03 10:21:56;;;;;;;4.43;3.33;;;24.20;99.90;;;;;;4127612;28;20154;-61
2023/06/03 10:24:00;;;;;;;4.30;3.60;;;24.30;99.90;;;;;;4128839;28;20050;-61
2023/06/03 10:26:02;;;;;;;6.32;4.68;;;24.40;99.90;;;;;;4129210;28;20034;-60
2023/06/03 10:28:03;;;;;;;5.93;3.45;;;24.50;99.90;;;;;;4126936;28;20117;-61
2023/06/03 10:30:06;;;;;;;7.50;2.90;;;24.70;99.90;;;;;;4129267;28;20072;-59
2023/06/03 10:32:12;;;;;;;4.18;3.15;;;24.80;99.90;;;;;;4128566;28;20089;-61
2023/06/03 10:34:16;;;;;;;12.25;3.67;;;24.70;99.90;;;;;;4128914;28;20100;-61
2023/06/03 10:36:20;;;;;;;5.07;3.67;;;24.70;99.90;;;;;;4127635;28;20085;-61
2023/06/03 10:38:22;;;;;;;4.35;3.28;;;24.50;99.90;;;;;;4129505;28;20449;-60
2023/06/03 10:40:24;;;;;;;11.98;4.65;;;24.30;99.90;;;;;;4129082;28;20077;-60